sensor_id;sensor_type;location;lat;lon;timestamp;pressure;altitude;pressure_sealevel;temperature;humidity
40574;BME280;26283;49.020;8.644;2023-05-21T00:02:03;98942.81;;;19.85;55.17
40574;BME280;26283;49.020;8.644;2023-05-21T00:04:29;98942.00;;;19.84;55.19
40574;BME280;26283;49.020;8.644;2023-05-21T00:06:56;98941.19;;;19.84;55.20
40574;BME280;26283;49.020;8.644;2023-05-21T00:09:22;98938.72;;;19.82;55.22
40574;BME280;26283;49.020;8.644;2023-05-21T00:11:48;98938.72;;;19.82;55.24
40574;BME280;26283;49.020;8.644;2023-05-21T00:14:13;98942.56;;;19.81;55.25
40574;BME280;26283;49.020;8.644;2023-05-21T00:16:39;98939.00;;;19.81;55.27
40574;BME280;26283;49.020;8.644;2023-05-21T00:19:04;98940.94;;;19.80;55.28
40574;BME280;26283;49.020;8.644;2023-05-21T00:21:30;98932.72;;;19.80;55.30
40574;BME280;26283;49.020;8.644;2023-05-21T00:23:55;98925.63;;;19.79;55.31
40574;BME280;26283;49.020;8.644;2023-05-21T00:26:21;98931.38;;;19.78;55.32
40574;BME280;26283;49.020;8.644;2023-05-21T00:28:48;98929.47;;;19.78;55.33
40574;BME280;26283;49.020;8.644;2023-05-21T00:31:14;98932.19;;;19.78;55.34
40574;BME280;26283;49.020;8.644;2023-05-21T00:33:40;98930.56;;;19.77;55.36
40574;BME280;26283;49.020;8.644;2023-05-21T00:36:05;98929.75;;;19.77;55.37
40574;BME280;26283;49.020;8.644;2023-05-21T00:38:31;98915.25;;;19.76;55.38
40574;BME280;26283;49.020;8.644;2023-05-21T00:41:06;98906.53;;;19.74;55.40
40574;BME280;26283;49.020;8.644;2023-05-21T00:43:31;98914.72;;;19.74;55.43
40574;BME280;26283;49.020;8.644;2023-05-21T00:45:57;98913.91;;;19.74;55.43
40574;BME280;26283;49.020;8.644;2023-05-21T00:48:23;98906.81;;;19.73;55.45
40574;BME280;26283;49.020;8.644;2023-05-21T00:50:49;98907.62;;;19.73;55.46
40574;BME280;26283;49.020;8.644;2023-05-21T00:53:14;98896.16;;;19.71;55.48
40574;BME280;26283;49.020;8.644;2023-05-21T00:55:42;98899.72;;;19.72;55.49
40574;BME280;26283;49.020;8.644;2023-05-21T00:58:08;98900.81;;;19.71;55.51
40574;BME280;26283;49.020;8.644;2023-05-21T01:00:34;98896.47;;;19.70;55.52
40574;BME280;26283;49.020;8.644;2023-05-21T01:03:02;98896.47;;;19.70;55.54
40574;BME280;26283;49.020;8.644;2023-05-21T01:05:27;98894.84;;;19.69;55.55
40574;BME280;26283;49.020;8.644;2023-05-21T01:07:53;98890.47;;;19.68;55.57
40574;BME280;26283;49.020;8.644;2023-05-21T01:10:20;98892.41;;;19.67;55.58
40574;BME280;26283;49.020;8.644;2023-05-21T01:12:46;98889.94;;;19.66;55.60
40574;BME280;26283;49.020;8.644;2023-05-21T01:15:12;98888.03;;;19.66;55.62
40574;BME280;26283;49.020;8.644;2023-05-21T01:17:38;98881.75;;;19.66;55.64
40574;BME280;26283;49.020;8.644;2023-05-21T01:20:06;98880.94;;;19.65;55.67
40574;BME280;26283;49.020;8.644;2023-05-21T01:22:37;98882.84;;;19.65;55.68
40574;BME280;26283;49.020;8.644;2023-05-21T01:25:06;98881.22;;;19.64;55.71
40574;BME280;26283;49.020;8.644;2023-05-21T01:27:31;98878.75;;;19.62;55.72
40574;BME280;26283;49.020;8.644;2023-05-21T01:29:57;98880.41;;;19.63;55.74
40574;BME280;26283;49.020;8.644;2023-05-21T01:32:43;98879.06;;;19.61;55.75
40574;BME280;26283;49.020;8.644;2023-05-21T01:35:23;98877.12;;;19.61;55.81
40574;BME280;26283;49.020;8.644;2023-05-21T01:40:39;98873.87;;;19.59;55.83
40574;BME280;26283;49.020;8.644;2023-05-21T01:43:06;98868.41;;;19.59;55.88
40574;BME280;26283;49.020;8.644;2023-05-21T01:45:35;98872.25;;;19.58;55.87
40574;BME280;26283;49.020;8.644;2023-05-21T01:48:02;98866.25;;;19.56;55.90
40574;BME280;26283;49.020;8.644;2023-05-21T01:50:30;98858.03;;;19.56;55.91
40574;BME280;26283;49.020;8.644;2023-05-21T01:52:56;98862.41;;;19.57;55.92
40574;BME280;26283;49.020;8.644;2023-05-21T01:55:22;98862.69;;;19.56;55.93
40574;BME280;26283;49.020;8.644;2023-05-21T01:57:53;98868.16;;;19.56;55.95
40574;BME280;26283;49.020;8.644;2023-05-21T02:00:23;98865.41;;;19.56;55.96
40574;BME280;26283;49.020;8.644;2023-05-21T02:02:50;98862.69;;;19.56;55.98
40574;BME280;26283;49.020;8.644;2023-05-21T02:05:16;98868.44;;;19.54;55.97
40574;BME280;26283;49.020;8.644;2023-05-21T02:07:41;98855.88;;;19.53;55.98
40574;BME280;26283;49.020;8.644;2023-05-21T02:10:08;98853.97;;;19.54;55.98
40574;BME280;26283;49.020;8.644;2023-05-21T02:12:34;98863.25;;;19.52;55.99
40574;BME280;26283;49.020;8.644;2023-05-21T02:14:59;98859.72;;;19.52;56.00
40574;BME280;26283;49.020;8.644;2023-05-21T02:17:24;98856.16;;;19.51;56.01
40574;BME280;26283;49.020;8.644;2023-05-21T02:19:50;98849.87;;;19.51;56.01
40574;BME280;26283;49.020;8.644;2023-05-21T02:22:16;98860.00;;;19.50;56.02
40574;BME280;26283;49.020;8.644;2023-05-21T02:24:41;98853.72;;;19.50;56.03
40574;BME280;26283;49.020;8.644;2023-05-21T02:27:07;98846.59;;;19.49;56.04
40574;BME280;26283;49.020;8.644;2023-05-21T02:29:35;98852.88;;;19.49;56.05
40574;BME280;26283;49.020;8.644;2023-05-21T02:32:00;98845.78;;;19.48;56.06
40574;BME280;26283;49.020;8.644;2023-05-21T02:34:26;98845.78;;;19.48;56.07
40574;BME280;26283;49.020;8.644;2023-05-21T02:36:55;98850.44;;;19.48;56.06
40574;BME280;26283;49.020;8.644;2023-05-21T02:39:20;98843.34;;;19.47;56.07
40574;BME280;26283;49.020;8.644;2023-05-21T02:41:45;98847.19;;;19.46;56.08
40574;BME280;26283;49.020;8.644;2023-05-21T02:44:11;98842.00;;;19.44;56.08
40574;BME280;26283;49.020;8.644;2023-05-21T02:46:37;98852.66;;;19.46;56.08
40574;BME280;26283;49.020;8.644;2023-05-21T02:49:02;98846.38;;;19.45;56.08
40574;BME280;26283;49.020;8.644;2023-05-21T02:51:28;98850.19;;;19.44;56.08
40574;BME280;26283;49.020;8.644;2023-05-21T02:53:53;98855.66;;;19.44;56.08
40574;BME280;26283;49.020;8.644;2023-05-21T02:56:18;98853.22;;;19.43;56.08
40574;BME280;26283;49.020;8.644;2023-05-21T02:58:44;98850.47;;;19.43;56.07
40574;BME280;26283;49.020;8.644;2023-05-21T03:01:10;98854.03;;;19.43;56.07
40574;BME280;26283;49.020;8.644;2023-05-21T03:03:35;98839.03;;;19.41;56.06
40574;BME280;26283;49.020;8.644;2023-05-21T03:06:00;98844.47;;;19.41;56.04
40574;BME280;26283;49.020;8.644;2023-05-21T03:08:26;98841.75;;;19.41;56.04
40574;BME280;26283;49.020;8.644;2023-05-21T03:10:51;98847.22;;;19.41;56.03
40574;BME280;26283;49.020;8.644;2023-05-21T03:13:16;98834.66;;;19.40;56.00
40574;BME280;26283;49.020;8.644;2023-05-21T03:15:42;98836.56;;;19.39;55.99
40574;BME280;26283;49.020;8.644;2023-05-21T03:18:08;98836.56;;;19.39;55.95
40574;BME280;26283;49.020;8.644;2023-05-21T03:20:34;98836.84;;;19.38;55.92
40574;BME280;26283;49.020;8.644;2023-05-21T03:22:59;98837.66;;;19.38;55.89
40574;BME280;26283;49.020;8.644;2023-05-21T03:25:28;98838.78;;;19.37;55.86
40574;BME280;26283;49.020;8.644;2023-05-21T03:27:53;98836.03;;;19.37;55.85
40574;BME280;26283;49.020;8.644;2023-05-21T03:30:19;98831.69;;;19.36;55.82
40574;BME280;26283;49.020;8.644;2023-05-21T03:32:45;98825.41;;;19.36;55.80
40574;BME280;26283;49.020;8.644;2023-05-21T03:35:10;98833.59;;;19.36;55.79
40574;BME280;26283;49.020;8.644;2023-05-21T03:37:36;98833.88;;;19.34;55.79
40574;BME280;26283;49.020;8.644;2023-05-21T03:40:01;98833.88;;;19.34;55.79
40574;BME280;26283;49.020;8.644;2023-05-21T03:42:27;98830.03;;;19.35;55.77
40574;BME280;26283;49.020;8.644;2023-05-21T03:44:53;98826.78;;;19.33;55.77
40574;BME280;26283;49.020;8.644;2023-05-21T03:47:19;98832.25;;;19.33;55.77
40574;BME280;26283;49.020;8.644;2023-05-21T03:49:44;98826.78;;;19.33;55.77
40574;BME280;26283;49.020;8.644;2023-05-21T03:52:09;98831.44;;;19.33;55.77
40574;BME280;26283;49.020;8.644;2023-05-21T03:54:35;98836.06;;;19.32;55.76
40574;BME280;26283;49.020;8.644;2023-05-21T03:57:00;98831.72;;;19.31;55.77
40574;BME280;26283;49.020;8.644;2023-05-21T03:59:26;98838.28;;;19.30;55.77
40574;BME280;26283;49.020;8.644;2023-05-21T04:01:51;98839.09;;;19.31;55.78
40574;BME280;26283;49.020;8.644;2023-05-21T04:04:16;98838.28;;;19.30;55.79
40574;BME280;26283;49.020;8.644;2023-05-21T04:06:42;98841.28;;;19.29;55.79
40574;BME280;26283;49.020;8.644;2023-05-21T04:09:07;98842.94;;;19.30;55.79
40574;BME280;26283;49.020;8.644;2023-05-21T04:11:32;98838.56;;;19.29;55.80
40574;BME280;26283;49.020;8.644;2023-05-21T04:13:58;98841.28;;;19.29;55.79
40574;BME280;26283;49.020;8.644;2023-05-21T04:16:23;98848.97;;;19.27;55.79
40574;BME280;26283;49.020;8.644;2023-05-21T04:18:49;98843.22;;;19.28;55.79
40574;BME280;26283;49.020;8.644;2023-05-21T04:21:15;98854.44;;;19.27;55.81
40574;BME280;26283;49.020;8.644;2023-05-21T04:23:40;98848.16;;;19.26;55.82
40574;BME280;26283;49.020;8.644;2023-05-21T04:26:06;98855.53;;;19.26;55.82
40574;BME280;26283;49.020;8.644;2023-05-21T04:28:32;98855.53;;;19.26;55.83
40574;BME280;26283;49.020;8.644;2023-05-21T04:30:57;98857.47;;;19.25;55.84
40574;BME280;26283;49.020;8.644;2023-05-21T04:33:22;98861.28;;;19.24;55.84
40574;BME280;26283;49.020;8.644;2023-05-21T04:35:51;98859.66;;;19.23;55.84
40574;BME280;26283;49.020;8.644;2023-05-21T04:38:17;98868.66;;;19.24;55.88
40574;BME280;26283;49.020;8.644;2023-05-21T04:40:51;98869.78;;;19.23;55.88
40574;BME280;26283;49.020;8.644;2023-05-21T04:43:17;98868.13;;;19.22;55.91
40574;BME280;26283;49.020;8.644;2023-05-21T04:45:49;98869.78;;;19.23;55.88
40574;BME280;26283;49.020;8.644;2023-05-21T04:48:15;98868.13;;;19.22;55.88
40574;BME280;26283;49.020;8.644;2023-05-21T04:50:40;98864.59;;;19.21;55.89
40574;BME280;26283;49.020;8.644;2023-05-21T04:53:05;98871.97;;;19.21;55.90
40574;BME280;26283;49.020;8.644;2023-05-21T04:55:31;98873.06;;;19.20;55.92
40574;BME280;26283;49.020;8.644;2023-05-21T04:57:57;98875.81;;;19.20;55.92
40574;BME280;26283;49.020;8.644;2023-05-21T05:00:22;98871.44;;;19.18;55.94
40574;BME280;26283;49.020;8.644;2023-05-21T05:02:50;98880.44;;;19.19;55.98
40574;BME280;26283;49.020;8.644;2023-05-21T05:05:15;98880.72;;;19.17;56.01
40574;BME280;26283;49.020;8.644;2023-05-21T05:07:40;98882.66;;;19.17;56.03
40574;BME280;26283;49.020;8.644;2023-05-21T05:10:06;98881.00;;;19.16;56.06
40574;BME280;26283;49.020;8.644;2023-05-21T05:12:32;98876.66;;;19.15;56.10
40574;BME280;26283;49.020;8.644;2023-05-21T05:14:57;98876.94;;;19.13;56.14
40574;BME280;26283;49.020;8.644;2023-05-21T05:17:22;98882.38;;;19.13;56.16
40574;BME280;26283;49.020;8.644;2023-05-21T05:19:48;98884.31;;;19.13;56.19
40574;BME280;26283;49.020;8.644;2023-05-21T05:22:14;98879.13;;;19.11;56.21
40574;BME280;26283;49.020;8.644;2023-05-21T05:24:39;98882.94;;;19.10;56.22
40574;BME280;26283;49.020;8.644;2023-05-21T05:27:04;98879.69;;;19.08;56.25
40574;BME280;26283;49.020;8.644;2023-05-21T05:29:30;98885.69;;;19.10;56.25
40574;BME280;26283;49.020;8.644;2023-05-21T05:31:55;98875.03;;;19.09;56.28
40574;BME280;26283;49.020;8.644;2023-05-21T05:34:20;98879.69;;;19.08;56.32
40574;BME280;26283;49.020;8.644;2023-05-21T05:36:46;98874.50;;;19.07;56.33
40574;BME280;26283;49.020;8.644;2023-05-21T05:39:11;98866.31;;;19.07;56.33
40574;BME280;26283;49.020;8.644;2023-05-21T05:41:36;98870.97;;;19.06;56.35
40574;BME280;26283;49.020;8.644;2023-05-21T05:44:02;98874.78;;;19.05;56.36
40574;BME280;26283;49.020;8.644;2023-05-21T05:46:27;98869.31;;;19.05;56.37
40574;BME280;26283;49.020;8.644;2023-05-21T05:48:53;98868.53;;;19.05;56.38
40574;BME280;26283;49.020;8.644;2023-05-21T05:51:18;98873.19;;;19.04;56.41
40574;BME280;26283;49.020;8.644;2023-05-21T05:53:43;98873.19;;;19.04;56.41
40574;BME280;26283;49.020;8.644;2023-05-21T05:56:09;98884.09;;;19.04;56.41
40574;BME280;26283;49.020;8.644;2023-05-21T05:58:34;98868.81;;;19.03;56.42
40574;BME280;26283;49.020;8.644;2023-05-21T06:01:00;98875.09;;;19.04;56.43
40574;BME280;26283;49.020;8.644;2023-05-21T06:03:26;98869.09;;;19.02;56.45
40574;BME280;26283;49.020;8.644;2023-05-21T06:05:52;98868.28;;;19.01;56.47
40574;BME280;26283;49.020;8.644;2023-05-21T06:08:17;98873.75;;;19.01;56.47
40574;BME280;26283;49.020;8.644;2023-05-21T06:10:42;98878.38;;;19.01;56.50
40574;BME280;26283;49.020;8.644;2023-05-21T06:13:08;98880.31;;;19.00;56.51
40574;BME280;26283;49.020;8.644;2023-05-21T06:15:33;98874.03;;;19.00;56.52
40574;BME280;26283;49.020;8.644;2023-05-21T06:17:58;98876.75;;;19.00;56.54
40574;BME280;26283;49.020;8.644;2023-05-21T06:20:24;98880.31;;;19.00;56.55
40574;BME280;26283;49.020;8.644;2023-05-21T06:22:49;98879.78;;;18.98;56.57
40574;BME280;26283;49.020;8.644;2023-05-21T06:25:15;98882.50;;;18.98;56.58
40574;BME280;26283;49.020;8.644;2023-05-21T06:27:40;98887.97;;;18.98;56.61
40574;BME280;26283;49.020;8.644;2023-05-21T06:30:06;98884.41;;;18.98;56.63
40574;BME280;26283;49.020;8.644;2023-05-21T06:32:31;98887.44;;;18.96;56.66
40574;BME280;26283;49.020;8.644;2023-05-21T06:34:57;98888.25;;;18.97;56.67
40574;BME280;26283;49.020;8.644;2023-05-21T06:37:22;98881.97;;;18.96;56.67
40574;BME280;26283;49.020;8.644;2023-05-21T06:39:47;98883.06;;;18.95;56.69
40574;BME280;26283;49.020;8.644;2023-05-21T06:42:13;98885.78;;;18.95;56.71
40574;BME280;26283;49.020;8.644;2023-05-21T06:44:38;98886.88;;;18.94;56.71
40574;BME280;26283;49.020;8.644;2023-05-21T06:47:04;98882.53;;;18.93;56.72
40574;BME280;26283;49.020;8.644;2023-05-21T06:49:31;98885.78;;;18.95;56.74
40574;BME280;26283;49.020;8.644;2023-05-21T06:51:56;98884.97;;;18.95;56.75
40574;BME280;26283;49.020;8.644;2023-05-21T06:54:22;98883.34;;;18.94;56.76
40574;BME280;26283;49.020;8.644;2023-05-21T06:56:47;98890.44;;;18.95;56.77
40574;BME280;26283;49.020;8.644;2023-05-21T06:59:13;98887.69;;;18.95;56.78
40574;BME280;26283;49.020;8.644;2023-05-21T07:01:38;98882.53;;;18.93;56.79
40574;BME280;26283;49.020;8.644;2023-05-21T07:04:07;98887.69;;;18.95;56.80
40574;BME280;26283;49.020;8.644;2023-05-21T07:06:32;98881.44;;;18.94;56.82
40574;BME280;26283;49.020;8.644;2023-05-21T07:08:59;98892.06;;;18.96;56.84
40574;BME280;26283;49.020;8.644;2023-05-21T07:11:24;98880.31;;;18.95;56.87
40574;BME280;26283;49.020;8.644;2023-05-21T07:13:53;98888.53;;;18.95;56.87
40574;BME280;26283;49.020;8.644;2023-05-21T07:16:18;98886.59;;;18.96;56.88
40574;BME280;26283;49.020;8.644;2023-05-21T07:18:44;98883.88;;;18.96;56.90
40574;BME280;26283;49.020;8.644;2023-05-21T07:21:09;98881.97;;;18.96;56.93
40574;BME280;26283;49.020;8.644;2023-05-21T07:23:35;98892.88;;;18.96;56.98
40574;BME280;26283;49.020;8.644;2023-05-21T07:26:00;98889.88;;;18.98;57.04
40574;BME280;26283;49.020;8.644;2023-05-21T07:28:25;98889.06;;;18.97;57.08
40574;BME280;26283;49.020;8.644;2023-05-21T07:30:51;98882.50;;;18.98;57.12
40574;BME280;26283;49.020;8.644;2023-05-21T07:33:16;98883.31;;;18.99;57.13
40574;BME280;26283;49.020;8.644;2023-05-21T07:35:44;98881.41;;;18.99;57.16
40574;BME280;26283;49.020;8.644;2023-05-21T07:38:10;98870.47;;;18.99;57.16
40574;BME280;26283;49.020;8.644;2023-05-21T07:40:35;98877.56;;;19.00;57.18
40574;BME280;26283;49.020;8.644;2023-05-21T07:43:01;98878.38;;;19.01;57.15
40574;BME280;26283;49.020;8.644;2023-05-21T07:45:26;98868.28;;;19.01;57.16
40574;BME280;26283;49.020;8.644;2023-05-21T07:47:51;98868.28;;;19.01;57.13
40574;BME280;26283;49.020;8.644;2023-05-21T07:50:17;98872.66;;;19.02;57.14
40574;BME280;26283;49.020;8.644;2023-05-21T07:52:42;98874.28;;;19.03;57.11
40574;BME280;26283;49.020;8.644;2023-05-21T07:55:08;98865.00;;;19.04;57.10
40574;BME280;26283;49.020;8.644;2023-05-21T07:57:34;98857.63;;;19.05;57.12
40574;BME280;26283;49.020;8.644;2023-05-21T07:59:59;98864.69;;;19.06;57.12
40574;BME280;26283;49.020;8.644;2023-05-21T08:02:25;98853.75;;;19.06;57.13
40574;BME280;26283;49.020;8.644;2023-05-21T08:04:51;98856.19;;;19.07;57.13
40574;BME280;26283;49.020;8.644;2023-05-21T08:07:16;98857.56;;;19.10;57.10
40574;BME280;26283;49.020;8.644;2023-05-21T08:09:44;98866.28;;;19.12;57.09
40574;BME280;26283;49.020;8.644;2023-05-21T08:12:09;98861.62;;;19.12;57.06
40574;BME280;26283;49.020;8.644;2023-05-21T08:14:38;98850.44;;;19.14;57.06
40574;BME280;26283;49.020;8.644;2023-05-21T08:17:03;98856.72;;;19.14;57.03
40574;BME280;26283;49.020;8.644;2023-05-21T08:19:29;98853.69;;;19.16;57.01
40574;BME280;26283;49.020;8.644;2023-05-21T08:21:55;98847.12;;;19.17;56.98
40574;BME280;26283;49.020;8.644;2023-05-21T08:24:20;98857.78;;;19.18;56.99
40574;BME280;26283;49.020;8.644;2023-05-21T08:26:46;98854.75;;;19.20;57.00
40574;BME280;26283;49.020;8.644;2023-05-21T08:29:13;98857.22;;;19.22;56.97
40574;BME280;26283;49.020;8.644;2023-05-21T08:31:38;98849.56;;;19.24;56.95
40574;BME280;26283;49.020;8.644;2023-05-21T08:34:04;98848.44;;;19.25;56.94
40574;BME280;26283;49.020;8.644;2023-05-21T08:36:30;98848.44;;;19.25;56.92
40574;BME280;26283;49.020;8.644;2023-05-21T08:38:55;98851.41;;;19.28;56.91
40574;BME280;26283;49.020;8.644;2023-05-21T08:41:21;98849.50;;;19.29;56.91
40574;BME280;26283;49.020;8.644;2023-05-21T08:43:53;98852.75;;;19.31;56.92
40574;BME280;26283;49.020;8.644;2023-05-21T08:46:22;98840.72;;;19.32;56.91
40574;BME280;26283;49.020;8.644;2023-05-21T08:48:48;98840.44;;;19.33;56.84
40574;BME280;26283;49.020;8.644;2023-05-21T08:51:15;98845.62;;;19.35;56.78
40574;BME280;26283;49.020;8.644;2023-05-21T08:53:42;98841.78;;;19.36;56.74
40574;BME280;26283;49.020;8.644;2023-05-21T08:56:10;98853.78;;;19.40;56.70
40574;BME280;26283;49.020;8.644;2023-05-21T08:58:38;98853.50;;;19.41;56.67
40574;BME280;26283;49.020;8.644;2023-05-21T09:01:06;98854.84;;;19.44;56.59
40574;BME280;26283;49.020;8.644;2023-05-21T09:03:32;98858.09;;;19.46;56.55
40574;BME280;26283;49.020;8.644;2023-05-21T09:05:58;98853.19;;;19.48;56.54
40574;BME280;26283;49.020;8.644;2023-05-21T09:08:30;98856.44;;;19.50;56.48
40574;BME280;26283;49.020;8.644;2023-05-21T09:10:57;98863.25;;;19.52;56.43
40574;BME280;26283;49.020;8.644;2023-05-21T09:13:24;98862.97;;;19.54;56.39
40574;BME280;26283;49.020;8.644;2023-05-21T09:15:50;98853.38;;;19.57;56.27
40574;BME280;26283;49.020;8.644;2023-05-21T09:18:15;98860.19;;;19.59;56.21
40574;BME280;26283;49.020;8.644;2023-05-21T09:20:41;98858.00;;;19.61;56.15
40574;BME280;26283;49.020;8.644;2023-05-21T09:23:08;98861.25;;;19.63;56.09
40574;BME280;26283;49.020;8.644;2023-05-21T09:25:37;98854.69;;;19.64;56.04
40574;BME280;26283;49.020;8.644;2023-05-21T09:28:03;98857.97;;;19.66;55.98
40574;BME280;26283;49.020;8.644;2023-05-21T09:30:28;98857.37;;;19.69;55.90
40574;BME280;26283;49.020;8.644;2023-05-21T09:32:58;98863.88;;;19.73;55.82
40574;BME280;26283;49.020;8.644;2023-05-21T09:35:24;98862.50;;;19.76;55.71
40574;BME280;26283;49.020;8.644;2023-05-21T09:37:51;98856.47;;;19.79;55.60
40574;BME280;26283;49.020;8.644;2023-05-21T09:40:18;98865.72;;;19.83;55.51
40574;BME280;26283;49.020;8.644;2023-05-21T09:45:17;98862.94;;;19.88;55.36
40574;BME280;26283;49.020;8.644;2023-05-21T09:47:43;98853.34;;;19.91;55.28
40574;BME280;26283;49.020;8.644;2023-05-21T09:50:11;98859.03;;;19.94;55.30
40574;BME280;26283;49.020;8.644;2023-05-21T09:52:37;98858.44;;;19.97;55.39
40574;BME280;26283;49.020;8.644;2023-05-21T09:55:06;98862.25;;;20.01;55.29
40574;BME280;26283;49.020;8.644;2023-05-21T09:57:39;98858.13;;;20.04;55.29
40574;BME280;26283;49.020;8.644;2023-05-21T10:00:06;98861.09;;;20.07;55.15
40574;BME280;26283;49.020;8.644;2023-05-21T10:02:36;98860.81;;;20.09;55.03
40574;BME280;26283;49.020;8.644;2023-05-21T10:05:04;98861.03;;;20.12;54.95
40574;BME280;26283;49.020;8.644;2023-05-21T10:07:34;98858.81;;;20.14;54.83
40574;BME280;26283;49.020;8.644;2023-05-21T10:10:02;98856.59;;;20.16;54.73
40574;BME280;26283;49.020;8.644;2023-05-21T10:12:29;98860.66;;;20.19;54.68
40574;BME280;26283;49.020;8.644;2023-05-21T10:15:00;98858.47;;;20.21;54.62
40574;BME280;26283;49.020;8.644;2023-05-21T10:17:28;98856.25;;;20.23;54.52
40574;BME280;26283;49.020;8.644;2023-05-21T10:19:55;98859.50;;;20.25;54.46
40574;BME280;26283;49.020;8.644;2023-05-21T10:22:24;98863.59;;;20.28;54.37
40574;BME280;26283;49.020;8.644;2023-05-21T10:24:51;98852.34;;;20.29;54.29
40574;BME280;26283;49.020;8.644;2023-05-21T10:27:17;98855.63;;;20.31;54.23
40574;BME280;26283;49.020;8.644;2023-05-21T10:29:45;98853.41;;;20.33;54.16
40574;BME280;26283;49.020;8.644;2023-05-21T10:32:14;98849.25;;;20.36;54.25
40574;BME280;26283;49.020;8.644;2023-05-21T10:34:42;98855.81;;;20.40;54.22
40574;BME280;26283;49.020;8.644;2023-05-21T10:37:08;98848.94;;;20.42;54.22
40574;BME280;26283;49.020;8.644;2023-05-21T10:39:37;98854.94;;;20.44;54.13
40574;BME280;26283;49.020;8.644;2023-05-21T10:45:25;98854.06;;;20.49;54.01
40574;BME280;26283;49.020;8.644;2023-05-21T10:48:10;98854.28;;;20.52;54.24
40574;BME280;26283;49.020;8.644;2023-05-21T10:51:14;98848.22;;;20.56;54.12
40574;BME280;26283;49.020;8.644;2023-05-21T11:02:14;98846.22;;;20.61;53.85
40574;BME280;26283;49.020;8.644;2023-05-21T11:04:43;98845.94;;;20.63;53.78
40574;BME280;26283;49.020;8.644;2023-05-21T11:07:10;98847.56;;;20.64;53.74
40574;BME280;26283;49.020;8.644;2023-05-21T11:09:36;98850.28;;;20.64;53.70
40574;BME280;26283;49.020;8.644;2023-05-21T11:12:02;98848.09;;;20.66;53.65
40574;BME280;26283;49.020;8.644;2023-05-21T11:16:56;98849.13;;;20.70;53.48
40574;BME280;26283;49.020;8.644;2023-05-21T11:19:41;98837.34;;;20.69;53.44
40574;BME280;26283;49.020;8.644;2023-05-21T11:22:07;98842.53;;;20.71;53.40
40574;BME280;26283;49.020;8.644;2023-05-21T11:24:36;98845.81;;;20.73;53.36
40574;BME280;26283;49.020;8.644;2023-05-21T11:27:04;98850.16;;;20.74;53.38
40574;BME280;26283;49.020;8.644;2023-05-21T11:29:35;98849.87;;;20.75;53.34
40574;BME280;26283;49.020;8.644;2023-05-21T11:32:05;98844.94;;;20.77;53.31
40574;BME280;26283;49.020;8.644;2023-05-21T11:34:42;98843.00;;;20.78;53.30
40574;BME280;26283;49.020;8.644;2023-05-21T11:39:47;98843.19;;;20.81;53.23
40574;BME280;26283;49.020;8.644;2023-05-21T11:42:26;98842.91;;;20.83;53.18
40574;BME280;26283;49.020;8.644;2023-05-21T11:44:52;98841.78;;;20.84;53.15
40574;BME280;26283;49.020;8.644;2023-05-21T11:47:18;98833.56;;;20.84;53.07
40574;BME280;26283;49.020;8.644;2023-05-21T11:49:44;98835.22;;;20.85;53.06
40574;BME280;26283;49.020;8.644;2023-05-21T11:52:11;98836.03;;;20.85;53.06
40574;BME280;26283;49.020;8.644;2023-05-21T11:54:49;98843.94;;;20.87;53.04
40574;BME280;26283;49.020;8.644;2023-05-21T11:57:16;98842.84;;;20.88;53.02
40574;BME280;26283;49.020;8.644;2023-05-21T11:59:47;98839.81;;;20.90;52.97
40574;BME280;26283;49.020;8.644;2023-05-21T12:02:24;98838.69;;;20.91;52.93
40574;BME280;26283;49.020;8.644;2023-05-21T12:04:51;98834.84;;;20.92;52.90
40574;BME280;26283;49.020;8.644;2023-05-21T12:07:18;98827.44;;;20.92;52.86
40574;BME280;26283;49.020;8.644;2023-05-21T12:09:47;98827.16;;;20.94;52.85
40574;BME280;26283;49.020;8.644;2023-05-21T12:12:15;98835.87;;;20.96;52.84
40574;BME280;26283;49.020;8.644;2023-05-21T12:14:45;98839.44;;;20.96;52.82
40574;BME280;26283;49.020;8.644;2023-05-21T12:17:14;98838.34;;;20.97;52.82
40574;BME280;26283;49.020;8.644;2023-05-21T12:19:41;98838.84;;;20.99;52.78
40574;BME280;26283;49.020;8.644;2023-05-21T12:22:07;98836.13;;;20.99;52.74
40574;BME280;26283;49.020;8.644;2023-05-21T12:24:34;98836.59;;;21.01;52.74
40574;BME280;26283;49.020;8.644;2023-05-21T12:27:01;98839.03;;;21.03;52.71
40574;BME280;26283;49.020;8.644;2023-05-21T12:29:29;98836.31;;;21.03;52.68
40574;BME280;26283;49.020;8.644;2023-05-21T12:31:59;98844.22;;;21.04;52.66
40574;BME280;26283;49.020;8.644;2023-05-21T12:34:46;98841.19;;;21.06;52.67
40574;BME280;26283;49.020;8.644;2023-05-21T12:37:22;98843.63;;;21.07;52.61
40574;BME280;26283;49.020;8.644;2023-05-21T12:39:53;98845.28;;;21.08;52.61
40574;BME280;26283;49.020;8.644;2023-05-21T12:42:30;98839.78;;;21.08;52.59
40574;BME280;26283;49.020;8.644;2023-05-21T12:44:56;98845.28;;;21.08;52.59
40574;BME280;26283;49.020;8.644;2023-05-21T12:47:26;98839.50;;;21.10;52.62
40574;BME280;26283;49.020;8.644;2023-05-21T12:49:58;98844.69;;;21.11;52.58
40574;BME280;26283;49.020;8.644;2023-05-21T12:52:25;98843.56;;;21.12;52.56
40574;BME280;26283;49.020;8.644;2023-05-21T12:54:53;98842.75;;;21.12;52.54
40574;BME280;26283;49.020;8.644;2023-05-21T12:57:19;98845.19;;;21.13;52.56
40574;BME280;26283;49.020;8.644;2023-05-21T13:02:37;98844.09;;;21.14;52.50
40574;BME280;26283;49.020;8.644;2023-05-21T13:05:08;98843.78;;;21.16;52.49
40574;BME280;26283;49.020;8.644;2023-05-21T13:07:35;98841.06;;;21.16;52.47
40574;BME280;26283;49.020;8.644;2023-05-21T13:10:01;98842.69;;;21.17;52.49
40574;BME280;26283;49.020;8.644;2023-05-21T13:12:31;98838.03;;;21.17;52.47
40574;BME280;26283;49.020;8.644;2023-05-21T13:15:01;98838.03;;;21.17;52.45
40574;BME280;26283;49.020;8.644;2023-05-21T13:17:27;98834.97;;;21.19;52.44
40574;BME280;26283;49.020;8.644;2023-05-21T13:20:09;98832.78;;;21.21;52.41
40574;BME280;26283;49.020;8.644;2023-05-21T13:22:39;98833.59;;;21.22;52.42
40574;BME280;26283;49.020;8.644;2023-05-21T13:25:22;98834.72;;;21.20;52.41